Time;durP1;ratioP1;P1;durP2;ratioP2;P2;SDS_P1;SDS_P2;PMS_P1;PMS_P2;Temp;Humidity;BMP_temperature;BMP_pressure;BME280_temperature;BME280_humidity;BME280_pressure;Samples;Min_cycle;Max_cycle;Signal;HPM_P1;HPM_P2
2021/12/18 00:01:38;;;;;;;4.60;1.70;;;25.70;81.90;;;;;;5073031;28;20467;-56
2021/12/18 00:04:06;;;;;;;1.90;1.00;;;25.90;81.50;;;;;;5073330;28;20032;-56
2021/12/18 00:06:33;;;;;;;2.75;1.50;;;25.80;80.00;;;;;;5073645;28;20020;-58
2021/12/18 00:09:01;;;;;;;7.28;2.08;;;25.90;81.20;;;;;;5073107;28;20024;-59
2021/12/18 00:11:28;;;;;;;6.97;2.38;;;26.00;82.60;;;;;;5073376;28;20033;-57
2021/12/18 00:13:56;;;;;;;6.68;1.85;;;26.10;82.30;;;;;;5073162;28;20344;-55
2021/12/18 00:16:24;;;;;;;2.08;1.15;;;26.20;80.40;;;;;;5073192;28;20070;-61
2021/12/18 00:18:53;;;;;;;3.10;1.30;;;25.90;82.00;;;;;;5071410;28;20028;-52
2021/12/18 00:21:21;;;;;;;7.55;2.15;;;26.10;80.40;;;;;;5072874;28;20048;-59
2021/12/18 00:23:49;;;;;;;8.20;1.85;;;26.20;82.50;;;;;;5071760;28;20448;-59
2021/12/18 00:26:16;;;;;;;6.65;1.90;;;26.30;82.50;;;;;;5071207;28;20479;-58
2021/12/18 00:28:44;;;;;;;6.05;2.25;;;26.10;79.50;;;;;;5072227;28;20082;-60
2021/12/18 00:31:11;;;;;;;6.00;1.85;;;26.20;79.90;;;;;;5072661;28;20120;-54
2021/12/18 00:33:41;;;;;;;2.58;1.10;;;26.30;79.80;;;;;;5072759;28;20409;-59
2021/12/18 00:36:09;;;;;;;4.85;1.80;;;26.10;79.40;;;;;;5072502;28;20112;-60
2021/12/18 00:38:38;;;;;;;6.63;1.92;;;26.40;83.10;;;;;;5072745;28;20036;-60
2021/12/18 00:44:00;;;;;;;4.80;1.83;;;26.50;81.00;;;;;;5072724;28;20136;-56
2021/12/18 00:46:25;;;;;;;4.80;1.33;;;26.60;80.90;;;;;;5071135;28;20025;-60
2021/12/18 00:48:53;;;;;;;7.72;2.05;;;26.60;78.80;;;;;;5072620;28;20375;-59
2021/12/18 00:51:20;;;;;;;2.80;1.27;;;26.70;79.70;;;;;;5072286;28;20036;-54
2021/12/18 00:53:48;;;;;;;3.10;1.23;;;26.60;81.10;;;;;;5071817;28;20045;-59
2021/12/18 00:56:15;;;;;;;3.08;1.42;;;26.60;78.50;;;;;;5072386;28;20032;-59
2021/12/18 00:58:43;;;;;;;3.05;1.30;;;26.60;81.20;;;;;;5071271;28;20036;-55
2021/12/18 01:01:12;;;;;;;5.38;1.67;;;26.90;77.90;;;;;;5072072;28;20037;-59
2021/12/18 01:03:40;;;;;;;4.53;1.75;;;26.80;78.40;;;;;;5072168;28;20024;-57
2021/12/18 01:06:08;;;;;;;2.47;1.00;;;26.80;80.00;;;;;;5071984;28;20033;-59
2021/12/18 01:08:36;;;;;;;2.90;1.20;;;26.80;77.80;;;;;;5072180;28;20024;-54
2021/12/18 01:13:36;;;;;;;3.00;1.55;;;26.80;77.90;;;;;;5072239;28;20025;-60
2021/12/18 01:16:13;;;;;;;1.75;1.08;;;26.90;77.70;;;;;;5070642;28;20382;-58
2021/12/18 01:24:11;;;;;;;4.80;1.73;;;27.00;77.80;;;;;;5071655;28;20120;-52
2021/12/18 01:26:38;;;;;;;2.72;1.35;;;27.20;77.80;;;;;;5071664;28;20025;-59
2021/12/18 01:29:06;;;;;;;3.72;1.77;;;27.20;76.90;;;;;;5071327;28;20085;-59
2021/12/18 01:31:33;;;;;;;5.35;1.88;;;27.20;79.70;;;;;;5071717;28;20035;-60
2021/12/18 01:34:00;;;;;;;4.65;1.40;;;27.30;79.80;;;;;;5072267;28;20474;-59
2021/12/18 01:36:29;;;;;;;5.20;2.05;;;27.20;77.10;;;;;;5075948;28;20039;-57
2021/12/18 01:38:57;;;;;;;2.50;1.15;;;27.20;80.00;;;;;;5074877;28;20036;-58
2021/12/18 01:41:25;;;;;;;2.00;1.23;;;27.20;76.90;;;;;;5074464;28;20040;-54
2021/12/18 01:44:35;;;;;;;2.25;1.15;;;27.20;77.20;;;;;;5075800;28;20032;-55
2021/12/18 01:47:05;;;;;;;4.53;1.27;;;27.30;77.10;;;;;;5075461;28;20020;-58
2021/12/18 01:52:24;;;;;;;5.40;1.65;;;27.60;78.60;;;;;;5076060;28;20031;-59
2021/12/18 01:54:52;;;;;;;5.38;2.22;;;27.50;79.50;;;;;;5075470;28;20439;-59
2021/12/18 01:57:19;;;;;;;5.80;2.00;;;27.70;79.10;;;;;;5074095;28;20360;-58
2021/12/18 01:59:48;;;;;;;5.85;1.92;;;27.70;78.10;;;;;;5074910;28;20032;-52
2021/12/18 02:02:16;;;;;;;9.43;2.72;;;27.80;79.10;;;;;;5075054;28;20013;-56
2021/12/18 02:04:45;;;;;;;4.05;1.17;;;27.90;79.10;;;;;;5075341;28;20024;-60
2021/12/18 02:07:14;;;;;;;6.68;2.40;;;27.70;76.50;;;;;;5075715;28;20078;-53
2021/12/18 02:12:39;;;;;;;9.32;2.25;;;27.60;76.70;;;;;;5075407;28;20032;-61
2021/12/18 02:20:53;;;;;;;4.28;2.38;;;28.00;78.90;;;;;;5051474;28;20052;-57
2021/12/18 02:23:20;;;;;;;2.72;1.27;;;27.90;79.10;;;;;;5075768;28;20069;-57
2021/12/18 02:25:49;;;;;;;7.78;2.10;;;27.80;76.40;;;;;;5073814;28;20340;-58
2021/12/18 02:28:25;;;;;;;5.68;1.95;;;27.90;78.70;;;;;;5074831;28;20024;-58
2021/12/18 02:30:54;;;;;;;5.55;1.77;;;27.90;76.90;;;;;;5075100;28;20132;-54
2021/12/18 02:33:23;;;;;;;6.63;2.13;;;27.90;76.80;;;;;;5074861;28;20021;-55
2021/12/18 02:35:53;;;;;;;4.47;1.75;;;27.80;77.10;;;;;;5075016;28;20067;-60
2021/12/18 02:38:56;;;;;;;3.28;1.40;;;27.60;77.20;;;;;;5073210;28;20046;-60
2021/12/18 02:41:41;;;;;;;6.97;2.33;;;27.60;77.20;;;;;;5074493;28;20082;-58
2021/12/18 02:44:11;;;;;;;5.57;1.92;;;27.80;78.40;;;;;;5074634;28;20420;-57
2021/12/18 02:46:40;;;;;;;5.28;1.98;;;27.70;78.50;;;;;;5074082;28;20407;-58
2021/12/18 02:49:14;;;;;;;6.53;1.50;;;27.60;80.20;;;;;;5074292;28;20032;-55
2021/12/18 02:51:41;;;;;;;4.65;1.83;;;27.60;78.10;;;;;;5075229;28;20029;-57
2021/12/18 02:54:09;;;;;;;4.70;1.63;;;27.50;78.70;;;;;;5074225;28;20048;-59
2021/12/18 02:56:37;;;;;;;7.03;2.00;;;27.60;80.00;;;;;;5074635;28;20036;-55
2021/12/18 02:59:08;;;;;;;4.07;1.63;;;27.50;78.80;;;;;;5074711;28;20026;-60
2021/12/18 03:01:38;;;;;;;5.90;2.30;;;27.50;78.60;;;;;;5074769;28;20032;-59
2021/12/18 03:04:21;;;;;;;4.38;1.90;;;27.60;79.50;;;;;;5074476;28;20109;-59
2021/12/18 03:06:55;;;;;;;4.32;2.25;;;27.80;80.60;;;;;;5074727;28;20040;-55
2021/12/18 03:25:27;;;;;;;6.25;1.65;;;27.90;78.70;;;;;;5074660;28;20047;-52
2021/12/18 03:27:58;;;;;;;2.25;1.17;;;28.00;79.30;;;;;;5073920;28;20078;-58
2021/12/18 03:30:26;;;;;;;5.68;2.20;;;27.90;78.40;;;;;;5074366;28;20024;-58
2021/12/18 03:32:54;;;;;;;3.65;2.15;;;28.00;80.40;;;;;;5074213;28;20481;-59
2021/12/18 03:35:21;;;;;;;4.97;2.63;;;28.10;79.40;;;;;;5073690;28;20458;-58
2021/12/18 03:37:49;;;;;;;6.10;2.00;;;28.10;78.70;;;;;;5073554;28;20044;-55
2021/12/18 03:40:19;;;;;;;5.15;2.03;;;28.20;78.60;;;;;;5073397;28;20036;-56
2021/12/18 03:42:47;;;;;;;5.57;2.35;;;28.20;80.10;;;;;;5073768;28;20016;-53
2021/12/18 03:45:16;;;;;;;6.10;1.85;;;28.30;80.60;;;;;;5073550;28;20063;-60
2021/12/18 03:47:45;;;;;;;5.97;2.05;;;28.20;78.90;;;;;;5073515;28;20032;-56
2021/12/18 03:50:12;;;;;;;4.30;1.80;;;28.20;80.30;;;;;;5073483;28;20028;-58
2021/12/18 03:52:40;;;;;;;4.85;1.80;;;28.30;79.40;;;;;;5072839;28;20431;-52
2021/12/18 03:55:08;;;;;;;4.35;1.83;;;28.30;78.60;;;;;;5073592;28;20106;-61
2021/12/18 03:57:35;;;;;;;7.53;2.45;;;28.20;80.50;;;;;;5073067;28;20025;-51
2021/12/18 04:00:05;;;;;;;8.43;2.28;;;28.20;79.60;;;;;;5073034;28;20036;-56
2021/12/18 04:02:36;;;;;;;7.15;2.20;;;28.20;78.80;;;;;;5073646;28;20044;-57
2021/12/18 04:05:04;;;;;;;5.18;1.80;;;28.20;79.90;;;;;;5073376;28;20062;-52
2021/12/18 04:07:39;;;;;;;6.95;2.13;;;28.20;78.60;;;;;;5073182;28;20051;-57
2021/12/18 04:10:09;;;;;;;5.85;2.15;;;28.20;80.90;;;;;;5073001;28;20111;-57
2021/12/18 04:12:36;;;;;;;8.60;2.47;;;28.10;80.20;;;;;;5073500;28;20035;-60
2021/12/18 04:15:05;;;;;;;6.75;2.55;;;28.20;79.70;;;;;;5073489;28;20031;-56
2021/12/18 04:17:32;;;;;;;10.75;3.13;;;28.20;80.40;;;;;;5072878;28;20475;-56
2021/12/18 04:20:00;;;;;;;11.77;3.00;;;28.30;80.50;;;;;;5072694;28;20155;-59
2021/12/18 04:22:28;;;;;;;6.65;2.50;;;28.20;80.00;;;;;;5073173;28;20024;-56
2021/12/18 04:24:55;;;;;;;3.90;1.80;;;28.20;80.60;;;;;;5073326;28;20021;-57
2021/12/18 04:27:23;;;;;;;3.95;2.00;;;28.10;78.90;;;;;;5073626;28;20032;-56
2021/12/18 04:29:50;;;;;;;6.43;2.20;;;27.90;80.60;;;;;;5073216;28;20024;-59
2021/12/18 04:32:18;;;;;;;9.88;2.47;;;27.90;80.60;;;;;;5073052;28;20085;-56
2021/12/18 04:34:45;;;;;;;7.20;2.15;;;28.00;80.40;;;;;;5073407;28;20021;-58
2021/12/18 04:37:12;;;;;;;4.63;2.35;;;27.90;82.40;;;;;;5072484;28;20481;-59
2021/12/18 04:39:40;;;;;;;5.72;2.40;;;27.90;81.50;;;;;;5072908;28;20047;-58
2021/12/18 04:42:07;;;;;;;5.88;2.40;;;27.90;81.20;;;;;;5073020;28;20021;-51
2021/12/18 04:44:35;;;;;;;6.63;2.80;;;28.00;81.90;;;;;;5072992;28;20035;-60
2021/12/18 04:47:02;;;;;;;6.20;2.08;;;27.80;81.20;;;;;;5073104;28;20478;-50
2021/12/18 04:49:30;;;;;;;4.95;2.17;;;27.80;81.90;;;;;;5072727;28;20037;-56
2021/12/18 04:51:57;;;;;;;9.30;2.40;;;28.00;80.50;;;;;;5072678;28;20412;-59
2021/12/18 04:54:24;;;;;;;5.57;2.45;;;27.90;82.50;;;;;;5072515;28;20494;-58
2021/12/18 04:56:52;;;;;;;7.63;2.63;;;28.10;80.40;;;;;;5071616;28;20033;-58
2021/12/18 04:59:19;;;;;;;5.00;2.22;;;28.00;81.60;;;;;;5072996;28;20034;-60
2021/12/18 05:01:46;;;;;;;5.00;2.00;;;28.00;81.10;;;;;;5073123;28;20033;-61
2021/12/18 05:04:14;;;;;;;6.90;2.40;;;27.90;81.10;;;;;;5072894;28;20389;-58
2021/12/18 05:06:45;;;;;;;6.45;2.20;;;27.80;81.60;;;;;;5072952;28;20028;-59
2021/12/18 05:09:14;;;;;;;7.60;2.73;;;27.70;81.90;;;;;;5072421;28;20025;-59
2021/12/18 05:11:43;;;;;;;4.95;2.15;;;27.80;83.20;;;;;;5073001;28;20017;-60
2021/12/18 05:14:10;;;;;;;5.40;2.00;;;27.80;81.50;;;;;;5072497;28;20032;-61
2021/12/18 05:16:38;;;;;;;11.55;2.90;;;27.80;82.00;;;;;;5073060;28;20020;-60
2021/12/18 05:19:05;;;;;;;8.82;2.40;;;27.80;84.00;;;;;;5072363;28;20483;-56
2021/12/18 05:21:33;;;;;;;6.93;2.80;;;28.00;82.70;;;;;;5072820;28;20380;-59
2021/12/18 05:24:00;;;;;;;6.18;2.40;;;28.00;83.20;;;;;;5071369;28;20479;-61
2021/12/18 05:26:28;;;;;;;6.80;2.53;;;28.00;82.40;;;;;;5073264;28;20035;-61
2021/12/18 05:28:55;;;;;;;10.57;2.80;;;27.90;83.70;;;;;;5073384;28;20060;-58
2021/12/18 05:31:22;;;;;;;4.88;1.92;;;28.10;83.20;;;;;;5073140;28;20028;-61
2021/12/18 05:33:54;;;;;;;5.60;2.47;;;27.90;81.90;;;;;;5073237;28;20016;-59
2021/12/18 05:37:01;;;;;;;4.18;2.28;;;28.00;83.70;;;;;;5073324;28;20032;-58
2021/12/18 05:39:25;;;;;;;7.25;2.70;;;28.00;82.90;;;;;;5073026;28;20483;-57
2021/12/18 05:41:53;;;;;;;16.83;4.05;;;27.90;83.10;;;;;;5072412;28;20509;-60
2021/12/18 05:44:22;;;;;;;14.25;3.05;;;28.20;86.40;;;;;;5073093;28;20077;-63
2021/12/18 05:46:50;;;;;;;7.10;2.88;;;28.20;82.20;;;;;;5072877;28;20024;-57
2021/12/18 05:49:17;;;;;;;6.70;1.90;;;28.10;82.40;;;;;;5072492;28;20024;-57
2021/12/18 05:51:45;;;;;;;10.02;2.70;;;28.10;82.00;;;;;;5072567;28;20103;-57
2021/12/18 05:54:13;;;;;;;10.55;3.25;;;28.10;83.70;;;;;;5072268;28;20074;-61
2021/12/18 05:56:42;;;;;;;9.55;2.72;;;28.20;84.20;;;;;;5072461;28;20032;-60
2021/12/18 05:59:09;;;;;;;6.82;2.50;;;28.10;82.10;;;;;;5072472;28;20202;-63
2021/12/18 06:01:36;;;;;;;6.00;2.30;;;28.00;82.00;;;;;;5072305;28;20471;-62
2021/12/18 06:04:04;;;;;;;9.80;3.08;;;28.00;83.00;;;;;;5071930;28;20415;-65
2021/12/18 06:06:31;;;;;;;12.18;3.85;;;28.00;83.10;;;;;;5071029;28;20055;-62
2021/12/18 06:08:59;;;;;;;9.43;3.15;;;28.00;84.70;;;;;;5072195;28;20426;-63
2021/12/18 06:11:28;;;;;;;11.35;3.17;;;28.00;84.00;;;;;;5072301;28;20027;-59
2021/12/18 06:13:56;;;;;;;7.68;2.72;;;28.00;84.70;;;;;;5071829;28;20028;-63
2021/12/18 06:16:23;;;;;;;14.50;3.70;;;28.00;84.60;;;;;;5071956;28;20028;-61
2021/12/18 06:18:52;;;;;;;11.90;3.28;;;28.10;85.00;;;;;;5071943;28;20104;-57
2021/12/18 06:21:22;;;;;;;12.05;3.22;;;28.10;84.70;;;;;;5075035;28;20051;-57
2021/12/18 06:23:53;;;;;;;10.60;3.35;;;28.10;84.90;;;;;;5075911;28;20040;-55
2021/12/18 06:26:22;;;;;;;10.13;3.15;;;28.00;85.50;;;;;;5074583;28;20045;-63
2021/12/18 06:28:49;;;;;;;8.75;2.78;;;28.00;84.70;;;;;;5075566;28;20041;-55
2021/12/18 06:31:16;;;;;;;11.52;3.50;;;28.00;85.60;;;;;;5075575;28;20024;-58
2021/12/18 06:33:44;;;;;;;7.88;2.53;;;27.90;86.70;;;;;;5075517;28;20029;-58
2021/12/18 06:36:11;;;;;;;9.90;3.53;;;28.00;87.10;;;;;;5075492;28;20029;-64
2021/12/18 06:38:38;;;;;;;10.65;2.85;;;28.10;87.00;;;;;;5075651;28;20426;-58
2021/12/18 06:41:06;;;;;;;8.63;3.03;;;28.00;87.30;;;;;;5075233;28;20032;-59
2021/12/18 06:43:33;;;;;;;7.78;2.88;;;28.10;86.90;;;;;;5075477;28;20032;-61
2021/12/18 06:46:00;;;;;;;6.93;2.75;;;28.00;87.30;;;;;;5075085;28;20035;-61
2021/12/18 06:48:28;;;;;;;10.40;3.40;;;28.10;86.70;;;;;;5075165;28;20028;-60
2021/12/18 06:50:55;;;;;;;8.63;2.92;;;28.10;87.40;;;;;;5075369;28;20524;-56
2021/12/18 06:53:23;;;;;;;7.13;2.60;;;28.10;87.10;;;;;;5057455;28;20056;-61
2021/12/18 06:55:50;;;;;;;8.05;2.63;;;27.80;88.00;;;;;;5075288;28;20040;-55
2021/12/18 06:58:17;;;;;;;9.43;3.45;;;27.90;88.20;;;;;;5075238;28;20356;-57
2021/12/18 07:00:45;;;;;;;5.95;2.67;;;27.90;87.90;;;;;;5075367;28;20041;-59
2021/12/18 07:03:13;;;;;;;8.15;3.00;;;27.90;87.20;;;;;;5074976;28;20036;-61
2021/12/18 07:05:40;;;;;;;17.33;3.70;;;27.90;88.10;;;;;;5075269;28;20036;-61
2021/12/18 07:08:08;;;;;;;7.65;2.75;;;27.90;88.20;;;;;;5074620;28;20024;-60
2021/12/18 07:10:35;;;;;;;7.45;3.08;;;27.80;88.10;;;;;;5075011;28;20035;-51
2021/12/18 07:13:03;;;;;;;7.28;2.35;;;27.70;88.10;;;;;;5075105;28;20024;-61
2021/12/18 07:15:31;;;;;;;7.53;3.20;;;27.70;87.60;;;;;;5074694;28;20482;-62
2021/12/18 07:17:58;;;;;;;9.68;3.63;;;27.60;88.40;;;;;;5073293;28;20037;-52
2021/12/18 07:20:27;;;;;;;8.13;3.17;;;27.60;87.50;;;;;;5074613;28;20059;-58
2021/12/18 07:22:55;;;;;;;6.75;2.60;;;27.60;87.40;;;;;;5074604;28;20024;-56
2021/12/18 07:25:22;;;;;;;6.78;2.60;;;27.60;88.00;;;;;;5074507;28;20104;-59
2021/12/18 07:27:50;;;;;;;6.72;2.65;;;27.60;88.10;;;;;;5075133;28;20529;-61
2021/12/18 07:30:17;;;;;;;7.15;2.90;;;27.60;88.10;;;;;;5074334;28;20016;-56
2021/12/18 07:32:45;;;;;;;8.57;3.13;;;27.50;88.40;;;;;;5073684;28;20028;-57
2021/12/18 07:35:12;;;;;;;9.38;3.25;;;27.50;88.00;;;;;;5073953;28;20054;-56
2021/12/18 07:37:40;;;;;;;6.05;2.58;;;27.50;87.80;;;;;;5073931;28;20379;-60
2021/12/18 07:40:09;;;;;;;8.07;3.08;;;27.50;88.10;;;;;;5072574;28;20025;-61
2021/12/18 07:42:36;;;;;;;10.30;3.13;;;27.40;87.70;;;;;;5074292;28;20079;-57
2021/12/18 07:45:05;;;;;;;7.00;2.33;;;27.40;88.90;;;;;;5073603;28;20086;-59
2021/12/18 07:47:32;;;;;;;9.40;3.17;;;27.40;87.90;;;;;;5073938;28;20028;-57
2021/12/18 07:50:02;;;;;;;8.90;3.15;;;27.40;88.70;;;;;;5072170;28;20029;-61
2021/12/18 07:52:29;;;;;;;8.00;2.85;;;27.50;89.40;;;;;;5073651;28;20119;-59
2021/12/18 07:54:57;;;;;;;7.20;2.60;;;27.40;88.20;;;;;;5073696;28;20114;-58
2021/12/18 07:57:24;;;;;;;19.30;4.65;;;27.40;89.10;;;;;;5073634;28;20107;-58
2021/12/18 07:59:51;;;;;;;8.38;3.15;;;27.40;88.20;;;;;;5073551;28;20037;-55
2021/12/18 08:02:19;;;;;;;13.27;4.88;;;27.40;89.50;;;;;;5072335;28;20016;-62
2021/12/18 08:04:46;;;;;;;10.23;3.80;;;27.50;89.20;;;;;;5073468;28;20024;-59
2021/12/18 08:07:13;;;;;;;7.72;2.90;;;27.40;89.00;;;;;;5073725;28;20024;-53
2021/12/18 08:09:41;;;;;;;9.98;3.38;;;27.40;88.20;;;;;;5073690;28;20471;-61
2021/12/18 08:12:09;;;;;;;8.18;3.83;;;27.30;89.60;;;;;;5073303;28;20079;-61
2021/12/18 08:14:36;;;;;;;6.25;2.80;;;27.30;89.50;;;;;;5073144;28;20070;-58
2021/12/18 08:17:04;;;;;;;8.40;3.80;;;27.30;89.30;;;;;;5073392;28;20025;-56
2021/12/18 08:19:31;;;;;;;11.07;3.70;;;27.30;90.00;;;;;;5073610;28;20098;-59
2021/12/18 08:21:58;;;;;;;6.95;3.30;;;27.20;89.70;;;;;;5073077;28;20029;-57
2021/12/18 08:24:26;;;;;;;15.88;3.70;;;27.20;89.60;;;;;;5073597;28;20066;-55
2021/12/18 08:26:53;;;;;;;16.00;3.70;;;27.20;90.10;;;;;;5073454;28;20108;-57
2021/12/18 08:29:21;;;;;;;13.18;3.70;;;27.20;90.10;;;;;;5073188;28;20032;-58
2021/12/18 08:31:48;;;;;;;11.15;4.13;;;27.20;90.20;;;;;;5072938;28;20036;-57
2021/12/18 08:34:15;;;;;;;12.32;4.40;;;27.20;89.50;;;;;;5072653;28;20039;-55
2021/12/18 08:36:43;;;;;;;13.27;3.83;;;27.20;90.20;;;;;;5072812;28;20039;-61
2021/12/18 08:39:11;;;;;;;12.00;4.25;;;27.10;90.30;;;;;;5072764;28;20066;-56
2021/12/18 08:41:39;;;;;;;15.38;4.50;;;27.10;90.50;;;;;;5072702;28;20491;-55
2021/12/18 08:44:07;;;;;;;9.70;3.83;;;27.10;90.60;;;;;;5072143;28;20028;-56
2021/12/18 08:46:35;;;;;;;9.63;4.10;;;27.10;90.50;;;;;;5072661;28;20040;-56
2021/12/18 08:49:03;;;;;;;18.25;4.38;;;27.00;90.50;;;;;;5072673;28;20073;-63
2021/12/18 08:51:30;;;;;;;12.45;4.55;;;27.00;90.20;;;;;;5072924;28;20493;-57
2021/12/18 08:53:58;;;;;;;12.63;4.63;;;27.00;90.30;;;;;;5072662;28;20049;-57
2021/12/18 08:56:25;;;;;;;9.20;3.83;;;27.00;90.40;;;;;;5072686;28;20048;-54
2021/12/18 08:58:53;;;;;;;15.20;4.57;;;27.00;90.50;;;;;;5072766;28;20491;-58
2021/12/18 09:01:26;;;;;;;10.73;3.35;;;26.90;90.00;;;;;;5072435;28;20449;-57
2021/12/18 09:03:53;;;;;;;8.35;3.20;;;26.80;90.00;;;;;;5072347;28;20036;-53
2021/12/18 09:06:21;;;;;;;12.85;4.10;;;26.70;90.10;;;;;;5072421;28;20364;-60
2021/12/18 09:08:49;;;;;;;9.88;3.13;;;26.70;90.80;;;;;;5072623;28;20095;-55
2021/12/18 09:11:17;;;;;;;8.43;3.47;;;26.70;90.10;;;;;;5072744;28;20369;-56
2021/12/18 09:13:44;;;;;;;7.10;3.22;;;26.70;90.40;;;;;;5072402;28;20107;-57
2021/12/18 09:16:11;;;;;;;9.93;3.63;;;26.70;90.20;;;;;;5071791;28;20028;-58
2021/12/18 09:18:39;;;;;;;10.00;3.35;;;26.70;90.60;;;;;;5072239;28;20157;-58
2021/12/18 09:21:07;;;;;;;10.63;4.25;;;26.70;90.40;;;;;;5072146;28;20041;-61
2021/12/18 09:23:34;;;;;;;10.55;3.55;;;26.70;90.70;;;;;;5071195;28;20546;-56
2021/12/18 09:26:02;;;;;;;8.75;3.75;;;26.70;90.60;;;;;;5072361;28;20043;-56
2021/12/18 09:28:29;;;;;;;11.93;3.80;;;26.70;90.90;;;;;;5072697;28;20482;-56
2021/12/18 09:30:56;;;;;;;9.30;3.13;;;26.60;90.60;;;;;;5072657;28;20025;-58
2021/12/18 09:33:24;;;;;;;9.75;3.28;;;26.50;90.50;;;;;;5072656;28;20024;-59
2021/12/18 09:35:51;;;;;;;9.38;3.72;;;26.60;90.90;;;;;;5072354;28;20032;-55
2021/12/18 09:38:19;;;;;;;8.57;3.80;;;26.60;90.60;;;;;;5071103;28;20016;-61
2021/12/18 09:40:47;;;;;;;10.00;3.55;;;26.50;90.60;;;;;;5072336;28;20041;-56
2021/12/18 09:43:14;;;;;;;11.73;4.55;;;26.60;90.80;;;;;;5072422;28;20443;-60
2021/12/18 09:45:45;;;;;;;9.27;4.20;;;26.50;90.60;;;;;;5072428;28;20032;-57
2021/12/18 09:48:13;;;;;;;12.10;3.67;;;26.50;90.50;;;;;;5071007;28;20387;-59
2021/12/18 09:50:43;;;;;;;12.48;4.18;;;26.50;90.90;;;;;;5072272;28;20031;-58
2021/12/18 09:53:10;;;;;;;12.00;3.30;;;26.50;91.00;;;;;;5072315;28;20044;-58
2021/12/18 09:55:38;;;;;;;13.73;4.03;;;26.50;90.80;;;;;;5074125;28;20098;-54
2021/12/18 09:58:05;;;;;;;11.27;3.63;;;26.50;91.10;;;;;;5075993;28;20031;-57
2021/12/18 10:00:32;;;;;;;10.95;3.88;;;26.50;91.20;;;;;;5075875;28;20036;-55
2021/12/18 10:03:00;;;;;;;9.10;3.67;;;26.50;90.90;;;;;;5076312;28;20147;-61
2021/12/18 10:05:30;;;;;;;9.50;3.58;;;26.50;90.80;;;;;;5075883;28;20063;-56
2021/12/18 10:08:14;;;;;;;11.53;4.63;;;26.40;90.90;;;;;;5075732;28;20017;-54
2021/12/18 10:11:09;;;;;;;10.30;3.75;;;26.50;91.20;;;;;;5075797;28;20025;-53
2021/12/18 10:14:06;;;;;;;13.15;4.38;;;26.40;90.90;;;;;;5075733;28;20029;-59
2021/12/18 10:16:46;;;;;;;11.50;4.25;;;26.50;91.20;;;;;;5067469;28;20028;-58
2021/12/18 10:19:32;;;;;;;11.63;3.53;;;26.40;91.10;;;;;;5076176;28;20036;-59
2021/12/18 10:22:06;;;;;;;14.52;4.03;;;26.40;91.20;;;;;;5075778;28;20082;-56
2021/12/18 10:24:36;;;;;;;17.83;4.78;;;26.40;90.70;;;;;;5076402;28;20042;-56
2021/12/18 10:27:21;;;;;;;10.82;3.58;;;26.40;91.30;;;;;;5075794;28;20100;-60
2021/12/18 10:29:50;;;;;;;12.77;4.07;;;26.40;91.40;;;;;;5075987;28;20025;-61
2021/12/18 10:32:21;;;;;;;12.02;3.45;;;26.40;91.30;;;;;;5075576;28;20029;-59
2021/12/18 10:34:57;;;;;;;9.18;4.00;;;26.40;91.30;;;;;;5075762;28;20422;-61
2021/12/18 10:37:32;;;;;;;9.77;3.45;;;26.40;91.40;;;;;;5075679;28;20025;-60
2021/12/18 10:40:03;;;;;;;10.73;4.35;;;26.40;91.10;;;;;;5075623;28;20090;-60
2021/12/18 10:42:30;;;;;;;;;;;26.30;91.20;;;;;;5075984;28;20025;-63
2021/12/18 10:45:00;;;;;;;16.08;4.10;;;26.40;91.30;;;;;;5075396;28;19911;-60
2021/12/18 10:47:48;;;;;;;12.10;4.15;;;26.30;91.40;;;;;;5075591;28;20463;-60
2021/12/18 10:50:18;;;;;;;9.13;3.67;;;26.30;91.50;;;;;;5074571;28;20036;-59
2021/12/18 10:52:46;;;;;;;8.07;2.97;;;26.30;90.70;;;;;;5074916;28;20520;-59
2021/12/18 10:55:13;;;;;;;8.13;3.05;;;26.20;90.70;;;;;;5075132;28;20495;-59
2021/12/18 10:57:52;;;;;;;5.80;3.00;;;26.10;91.20;;;;;;5074712;28;20119;-58
2021/12/18 11:00:42;;;;;;;9.25;3.42;;;26.10;91.10;;;;;;5074894;28;20390;-59
2021/12/18 11:03:22;;;;;;;12.38;4.80;;;26.20;91.50;;;;;;5074924;28;20115;-64
2021/12/18 11:06:40;;;;;;;11.38;4.30;;;26.20;91.50;;;;;;5074532;28;20104;-62
2021/12/18 11:09:15;;;;;;;7.45;3.20;;;26.20;91.60;;;;;;5057482;28;20501;-57
2021/12/18 11:14:16;;;;;;;10.88;3.80;;;26.20;91.60;;;;;;5074925;28;20024;-58
2021/12/18 11:16:55;;;;;;;16.40;3.97;;;26.20;91.50;;;;;;5074959;28;20111;-60
2021/12/18 11:19:25;;;;;;;10.43;3.30;;;26.20;91.60;;;;;;5075188;28;20111;-61
2021/12/18 11:21:57;;;;;;;5.33;2.63;;;26.20;91.00;;;;;;5074582;28;20024;-57
2021/12/18 11:24:36;;;;;;;11.82;3.67;;;26.20;90.90;;;;;;5074684;28;20550;-59
2021/12/18 11:27:10;;;;;;;10.10;3.63;;;26.20;91.20;;;;;;5074683;28;20035;-58
2021/12/18 11:29:46;;;;;;;10.43;3.20;;;26.20;90.90;;;;;;5074527;28;20028;-57
2021/12/18 11:32:20;;;;;;;10.82;4.10;;;26.20;91.30;;;;;;5074039;28;20027;-61
2021/12/18 11:34:49;;;;;;;13.25;4.60;;;26.30;91.70;;;;;;5074304;28;20532;-58
2021/12/18 11:37:18;;;;;;;12.82;4.13;;;26.30;91.60;;;;;;5074241;28;20024;-56
2021/12/18 11:39:48;;;;;;;14.40;5.10;;;26.30;91.50;;;;;;5074023;28;20050;-59
2021/12/18 11:42:16;;;;;;;11.90;4.97;;;26.30;91.80;;;;;;5073978;28;20033;-58
2021/12/18 11:44:56;;;;;;;13.00;3.95;;;26.30;91.30;;;;;;5074078;28;20051;-57
2021/12/18 11:47:25;;;;;;;7.53;3.40;;;26.20;90.80;;;;;;5073980;28;20035;-60
2021/12/18 11:49:56;;;;;;;6.35;2.60;;;26.10;90.90;;;;;;5073705;28;20101;-59
2021/12/18 11:52:24;;;;;;;13.53;4.50;;;26.00;91.00;;;;;;5073807;28;20099;-58
2021/12/18 11:54:52;;;;;;;5.85;2.58;;;26.00;91.30;;;;;;5073848;28;20388;-59
2021/12/18 11:57:43;;;;;;;6.90;3.20;;;26.00;91.00;;;;;;5073890;28;20506;-58
2021/12/18 12:00:22;;;;;;;7.70;3.50;;;26.00;91.20;;;;;;5073689;28;20510;-61
2021/12/18 12:02:57;;;;;;;6.47;3.25;;;26.00;91.00;;;;;;5074364;28;20056;-60
2021/12/18 12:05:38;;;;;;;8.55;3.00;;;25.90;91.00;;;;;;5073678;28;20021;-60
2021/12/18 12:08:41;;;;;;;8.07;3.30;;;25.90;91.30;;;;;;5073239;28;20052;-59
2021/12/18 12:11:17;;;;;;;7.15;2.88;;;25.90;91.40;;;;;;5073524;28;20081;-58
2021/12/18 12:14:10;;;;;;;6.78;2.50;;;25.90;90.90;;;;;;5074051;28;20375;-62
2021/12/18 12:16:46;;;;;;;8.88;2.60;;;25.90;90.80;;;;;;5073639;28;20028;-59
2021/12/18 12:19:19;;;;;;;9.65;3.03;;;25.90;90.40;;;;;;5073320;28;20379;-56
2021/12/18 12:21:58;;;;;;;7.15;2.50;;;25.90;90.20;;;;;;5073124;28;20368;-53
2021/12/18 12:24:27;;;;;;;7.47;2.90;;;25.90;90.20;;;;;;5073416;28;20017;-59
2021/12/18 12:27:15;;;;;;;3.85;2.17;;;25.90;89.10;;;;;;5073134;28;20031;-59
2021/12/18 12:29:49;;;;;;;5.32;2.70;;;25.90;90.10;;;;;;5073454;28;20077;-58
2021/12/18 12:32:20;;;;;;;6.38;2.25;;;25.90;90.00;;;;;;5071906;28;20138;-60
2021/12/18 12:35:12;;;;;;;4.57;2.17;;;25.90;90.00;;;;;;5073312;28;20040;-61
2021/12/18 12:37:39;;;;;;;;;;;25.90;89.80;;;;;;5068135;28;20555;-58
2021/12/18 12:40:06;;;;;;;5.55;2.28;;;25.90;90.50;;;;;;5072900;28;20235;-59
2021/12/18 12:42:35;;;;;;;7.55;2.95;;;25.90;90.70;;;;;;5071641;28;20036;-60
2021/12/18 12:45:09;;;;;;;6.97;2.50;;;25.70;90.80;;;;;;5073011;28;20024;-60
2021/12/18 12:47:38;;;;;;;6.07;2.70;;;25.70;90.90;;;;;;5071797;28;20048;-60
2021/12/18 12:50:14;;;;;;;4.65;2.80;;;25.60;90.90;;;;;;5072418;28;20021;-58
2021/12/18 12:53:01;;;;;;;4.32;2.45;;;25.50;91.10;;;;;;5072856;28;20070;-59
2021/12/18 12:55:43;;;;;;;6.25;2.40;;;25.50;91.20;;;;;;5072905;28;20036;-55
2021/12/18 12:58:22;;;;;;;5.63;2.58;;;25.50;91.30;;;;;;5072809;28;20020;-60
2021/12/18 13:00:55;;;;;;;5.65;2.58;;;25.40;91.40;;;;;;5073342;28;20021;-55
2021/12/18 13:03:27;;;;;;;5.47;2.03;;;25.30;91.40;;;;;;5072935;28;20017;-59
2021/12/18 13:05:56;;;;;;;7.22;2.90;;;25.30;91.60;;;;;;5072575;28;20051;-60
2021/12/18 13:08:24;;;;;;;5.40;2.22;;;25.30;91.60;;;;;;5073167;28;20020;-57
2021/12/18 13:10:54;;;;;;;7.40;2.95;;;25.20;91.70;;;;;;5072415;28;20029;-53
2021/12/18 13:13:25;;;;;;;4.18;2.40;;;25.20;91.70;;;;;;5072806;28;20052;-59
2021/12/18 13:16:16;;;;;;;7.15;3.08;;;25.20;91.80;;;;;;5072553;28;20133;-55
2021/12/18 13:18:53;;;;;;;6.40;2.53;;;25.10;91.80;;;;;;5072900;28;20103;-54
2021/12/18 13:21:32;;;;;;;6.85;2.47;;;25.10;91.90;;;;;;5072493;28;20081;-58
2021/12/18 13:24:10;;;;;;;8.00;2.60;;;25.10;91.90;;;;;;5072446;28;20364;-60
2021/12/18 13:26:40;;;;;;;4.75;2.33;;;25.00;92.00;;;;;;5072518;28;20029;-58
2021/12/18 13:29:17;;;;;;;4.00;2.15;;;25.00;92.00;;;;;;5072767;28;20028;-59
2021/12/18 13:31:52;;;;;;;7.30;2.90;;;25.00;92.10;;;;;;5076582;28;20027;-54
2021/12/18 13:34:24;;;;;;;4.38;2.00;;;24.90;92.10;;;;;;5075372;28;20432;-58
2021/12/18 13:37:04;;;;;;;6.03;2.22;;;24.90;92.10;;;;;;5076842;28;20024;-53
2021/12/18 13:39:34;;;;;;;5.78;2.17;;;24.90;92.10;;;;;;5076416;28;20390;-59
2021/12/18 13:42:07;;;;;;;4.15;2.10;;;24.80;92.20;;;;;;5076367;28;20024;-57
2021/12/18 13:44:44;;;;;;;5.00;2.47;;;24.80;92.30;;;;;;5076676;28;20016;-58